African Piper — C6BO2 — position and weather

sailwx.info

Track history (hours):
 
Tides and Currents Weather Stations Pressure Air Temp Water Temp Dewpoint Dewpoint Depression Visibility Wind Speed Wind Dir Waves Ship Positions

African Piper

Last reported at 2018-Jun-12 23:51 UTC. Time now 2018-Jun-21 10:04 UTC.
Position N 37°57' E 122°11'.
Warning: this ship's position is 8 days out of date.

Length 180 m; draft 6 m.

Type: Cargo ship. MMSI: 311000316.

Date/timePositionNaut miles runAvg speedWind from/ knotsBaromVisibWave heightAir tempDewpointWater temp
2018-Jun-12 23:51N 37°57' E 122°11'411.0
2018-Jun-12 23:28N 37°59' E 122°06'811.0
2018-Jun-12 22:42N 38°03' E 121°57'211.7
2018-Jun-12 22:30N 38°05' E 121°55'611.9
2018-Jun-12 21:59N 38°08' E 121°48'  
2018-Jun-06 17:01N 38°28' E 121°13'010.0
2018-Jun-06 16:59N 38°28' E 121°14'5 9.8
2018-Jun-06 16:27N 38°26' E 121°19'510.1
2018-Jun-06 16:00N 38°23' E 121°25'510.2
2018-Jun-06 15:30N 38°21' E 121°30'510.0
2018-Jun-06 14:59N 38°19' E 121°36'510.4
2018-Jun-06 14:28N 38°15' E 121°42'510.3
2018-Jun-06 14:00N 38°13' E 121°47'510.5
2018-Jun-06 13:30N 38°11' E 121°53'510.9
2018-Jun-06 13:00N 38°08' E 121°59'611.2
2018-Jun-06 12:30N 38°05' E 122°05'611.1
2018-Jun-06 12:00N 38°02' E 122°11'611.1
2018-Jun-06 11:29N 37°59' E 122°17'511.0
2018-Jun-06 10:59N 37°56' E 122°23'510.5
2018-Jun-06 10:29N 37°54' E 122°29'510.6
2018-Jun-06 10:00N 37°51' E 122°34'910.2
2018-Jun-06 09:10N 37°47' E 122°44'610.1
2018-Jun-06 08:36N 37°44' E 122°50'  
Track history (hours):
 
Tides and Currents Weather Stations Pressure Air Temp Water Temp Dewpoint Dewpoint Depression Visibility Wind Speed Wind Dir Waves Ship Positions

African Piper

Last reported at 2018-Jun-12 23:51 UTC. Time now 2018-Jun-21 10:04 UTC.
Position N 37°57' E 122°11'.
Warning: this ship's position is 8 days out of date.

Length 180 m; draft 6 m.

Type: Cargo ship. MMSI: 311000316.

Date/timePositionNaut miles runAvg speedWind from/ knotsBaromVisibWave heightAir tempDewpointWater temp
2018-Jun-12 23:51N 37°57' E 122°11'411.0
2018-Jun-12 23:28N 37°59' E 122°06'811.0
2018-Jun-12 22:42N 38°03' E 121°57'211.7
2018-Jun-12 22:30N 38°05' E 121°55'611.9
2018-Jun-12 21:59N 38°08' E 121°48'  
2018-Jun-06 17:01N 38°28' E 121°13'010.0
2018-Jun-06 16:59N 38°28' E 121°14'5 9.8
2018-Jun-06 16:27N 38°26' E 121°19'510.1
2018-Jun-06 16:00N 38°23' E 121°25'510.2
2018-Jun-06 15:30N 38°21' E 121°30'510.0
2018-Jun-06 14:59N 38°19' E 121°36'510.4
2018-Jun-06 14:28N 38°15' E 121°42'510.3
2018-Jun-06 14:00N 38°13' E 121°47'510.5
2018-Jun-06 13:30N 38°11' E 121°53'510.9
2018-Jun-06 13:00N 38°08' E 121°59'611.2
2018-Jun-06 12:30N 38°05' E 122°05'611.1
2018-Jun-06 12:00N 38°02' E 122°11'611.1
2018-Jun-06 11:29N 37°59' E 122°17'511.0
2018-Jun-06 10:59N 37°56' E 122°23'510.5
2018-Jun-06 10:29N 37°54' E 122°29'510.6
2018-Jun-06 10:00N 37°51' E 122°34'910.2
2018-Jun-06 09:10N 37°47' E 122°44'610.1
2018-Jun-06 08:36N 37°44' E 122°50'  

Dump ship's entire track history